sensor_id;sensor_type;location;lat;lon;timestamp;pressure;altitude;pressure_sealevel;temperature
23208;BMP180;11773;52.570;13.052;2023-10-19T00:09:48;100205.00;;;12.90
23208;BMP180;11773;52.570;13.052;2023-10-19T00:12:19;100212.00;;;13.00
23208;BMP180;11773;52.570;13.052;2023-10-19T00:14:50;100187.00;;;13.00
23208;BMP180;11773;52.570;13.052;2023-10-19T00:17:21;100182.00;;;13.00
23208;BMP180;11773;52.570;13.052;2023-10-19T00:19:50;100188.00;;;13.10
23208;BMP180;11773;52.570;13.052;2023-10-19T00:22:26;100184.00;;;13.10
23208;BMP180;11773;52.570;13.052;2023-10-19T00:24:58;100167.00;;;13.00
23208;BMP180;11773;52.570;13.052;2023-10-19T00:27:27;100167.00;;;13.00
23208;BMP180;11773;52.570;13.052;2023-10-19T00:29:57;100166.00;;;13.00
23208;BMP180;11773;52.570;13.052;2023-10-19T00:32:28;100157.00;;;13.00
23208;BMP180;11773;52.570;13.052;2023-10-19T00:34:59;100169.00;;;13.00
23208;BMP180;11773;52.570;13.052;2023-10-19T00:37:30;100164.00;;;13.00
23208;BMP180;11773;52.570;13.052;2023-10-19T00:40:01;100147.00;;;13.00
23208;BMP180;11773;52.570;13.052;2023-10-19T00:42:32;100150.00;;;13.00
23208;BMP180;11773;52.570;13.052;2023-10-19T00:45:03;100139.00;;;13.00
23208;BMP180;11773;52.570;13.052;2023-10-19T00:47:34;100140.00;;;12.90
23208;BMP180;11773;52.570;13.052;2023-10-19T00:50:10;100149.00;;;12.90
23208;BMP180;11773;52.570;13.052;2023-10-19T00:52:43;100131.00;;;12.90
23208;BMP180;11773;52.570;13.052;2023-10-19T00:55:16;100120.00;;;12.90
23208;BMP180;11773;52.570;13.052;2023-10-19T00:57:50;100124.00;;;12.90
23208;BMP180;11773;52.570;13.052;2023-10-19T01:00:21;100115.00;;;13.00
23208;BMP180;11773;52.570;13.052;2023-10-19T01:02:52;100097.00;;;13.00
23208;BMP180;11773;52.570;13.052;2023-10-19T01:05:23;100098.00;;;13.00
23208;BMP180;11773;52.570;13.052;2023-10-19T01:07:55;100096.00;;;12.90
23208;BMP180;11773;52.570;13.052;2023-10-19T01:10:29;100096.00;;;12.90
23208;BMP180;11773;52.570;13.052;2023-10-19T01:13:00;100083.00;;;13.00
23208;BMP180;11773;52.570;13.052;2023-10-19T01:15:30;100079.00;;;13.00
23208;BMP180;11773;52.570;13.052;2023-10-19T01:18:00;100094.00;;;13.00
23208;BMP180;11773;52.570;13.052;2023-10-19T01:20:32;100087.00;;;13.00
23208;BMP180;11773;52.570;13.052;2023-10-19T01:23:06;100074.00;;;13.00
23208;BMP180;11773;52.570;13.052;2023-10-19T01:25:47;100087.00;;;13.00
23208;BMP180;11773;52.570;13.052;2023-10-19T01:28:28;100080.00;;;13.00
23208;BMP180;11773;52.570;13.052;2023-10-19T01:31:15;100074.00;;;12.90
23208;BMP180;11773;52.570;13.052;2023-10-19T01:34:01;100058.00;;;12.90
23208;BMP180;11773;52.570;13.052;2023-10-19T01:36:33;100033.00;;;12.90
23208;BMP180;11773;52.570;13.052;2023-10-19T01:39:04;100039.00;;;12.90
23208;BMP180;11773;52.570;13.052;2023-10-19T01:41:35;100023.00;;;12.90
23208;BMP180;11773;52.570;13.052;2023-10-19T01:44:05;100035.00;;;12.90
23208;BMP180;11773;52.570;13.052;2023-10-19T01:46:40;100027.00;;;12.90
23208;BMP180;11773;52.570;13.052;2023-10-19T01:49:11;100022.00;;;12.90
23208;BMP180;11773;52.570;13.052;2023-10-19T01:51:41;100031.00;;;12.90
23208;BMP180;11773;52.570;13.052;2023-10-19T01:54:12;100022.00;;;12.90
23208;BMP180;11773;52.570;13.052;2023-10-19T01:56:43;100011.00;;;12.90
23208;BMP180;11773;52.570;13.052;2023-10-19T01:59:12;100009.00;;;12.90
23208;BMP180;11773;52.570;13.052;2023-10-19T02:01:43;100025.00;;;12.90
23208;BMP180;11773;52.570;13.052;2023-10-19T02:04:14;100007.00;;;12.90
23208;BMP180;11773;52.570;13.052;2023-10-19T02:06:44;100012.00;;;12.90
23208;BMP180;11773;52.570;13.052;2023-10-19T02:09:17;100013.00;;;12.90
23208;BMP180;11773;52.570;13.052;2023-10-19T02:11:51;100007.00;;;12.90
23208;BMP180;11773;52.570;13.052;2023-10-19T02:14:27;100023.00;;;12.90
23208;BMP180;11773;52.570;13.052;2023-10-19T02:17:01;100005.00;;;12.90
23208;BMP180;11773;52.570;13.052;2023-10-19T02:19:33;99998.00;;;12.90
23208;BMP180;11773;52.570;13.052;2023-10-19T02:22:03;99996.00;;;12.90
23208;BMP180;11773;52.570;13.052;2023-10-19T02:24:34;100006.00;;;12.90
23208;BMP180;11773;52.570;13.052;2023-10-19T02:27:04;99990.00;;;13.00
23208;BMP180;11773;52.570;13.052;2023-10-19T02:29:35;99995.00;;;13.00
23208;BMP180;11773;52.570;13.052;2023-10-19T02:32:06;99987.00;;;13.00
23208;BMP180;11773;52.570;13.052;2023-10-19T02:34:36;99995.00;;;13.00
23208;BMP180;11773;52.570;13.052;2023-10-19T02:37:05;99982.00;;;12.90
23208;BMP180;11773;52.570;13.052;2023-10-19T02:39:36;99984.00;;;13.00
23208;BMP180;11773;52.570;13.052;2023-10-19T02:42:06;99977.00;;;13.00
23208;BMP180;11773;52.570;13.052;2023-10-19T02:44:37;99967.00;;;13.00
23208;BMP180;11773;52.570;13.052;2023-10-19T02:47:07;99968.00;;;13.00
23208;BMP180;11773;52.570;13.052;2023-10-19T02:49:38;99956.00;;;13.00
23208;BMP180;11773;52.570;13.052;2023-10-19T02:52:08;99959.00;;;13.00
23208;BMP180;11773;52.570;13.052;2023-10-19T02:54:39;99961.00;;;13.00
23208;BMP180;11773;52.570;13.052;2023-10-19T02:57:09;99937.00;;;13.10
23208;BMP180;11773;52.570;13.052;2023-10-19T02:59:40;99947.00;;;13.10
23208;BMP180;11773;52.570;13.052;2023-10-19T03:02:10;99935.00;;;13.10
23208;BMP180;11773;52.570;13.052;2023-10-19T03:04:41;99940.00;;;13.10
23208;BMP180;11773;52.570;13.052;2023-10-19T03:07:11;99943.00;;;13.10
23208;BMP180;11773;52.570;13.052;2023-10-19T03:09:42;99944.00;;;13.10
23208;BMP180;11773;52.570;13.052;2023-10-19T03:12:18;99938.00;;;13.10
23208;BMP180;11773;52.570;13.052;2023-10-19T03:14:47;99943.00;;;13.10
23208;BMP180;11773;52.570;13.052;2023-10-19T03:17:17;99939.00;;;13.10
23208;BMP180;11773;52.570;13.052;2023-10-19T03:19:47;99947.00;;;13.20
23208;BMP180;11773;52.570;13.052;2023-10-19T03:22:17;99921.00;;;13.20
23208;BMP180;11773;52.570;13.052;2023-10-19T03:24:47;99934.00;;;13.20
23208;BMP180;11773;52.570;13.052;2023-10-19T03:27:19;99916.00;;;13.20
23208;BMP180;11773;52.570;13.052;2023-10-19T03:29:53;99927.00;;;13.20
23208;BMP180;11773;52.570;13.052;2023-10-19T03:32:25;99902.00;;;13.20
23208;BMP180;11773;52.570;13.052;2023-10-19T03:34:59;99897.00;;;13.20
23208;BMP180;11773;52.570;13.052;2023-10-19T03:37:30;99898.00;;;13.20
23208;BMP180;11773;52.570;13.052;2023-10-19T03:40:00;99886.00;;;13.20
23208;BMP180;11773;52.570;13.052;2023-10-19T03:42:31;99902.00;;;13.20
23208;BMP180;11773;52.570;13.052;2023-10-19T03:45:01;99882.00;;;13.20
23208;BMP180;11773;52.570;13.052;2023-10-19T03:47:32;99880.00;;;13.20
23208;BMP180;11773;52.570;13.052;2023-10-19T03:50:07;99883.00;;;13.20
23208;BMP180;11773;52.570;13.052;2023-10-19T03:52:38;99877.00;;;13.10
23208;BMP180;11773;52.570;13.052;2023-10-19T03:55:09;99861.00;;;13.10
23208;BMP180;11773;52.570;13.052;2023-10-19T03:57:43;99864.00;;;13.10
23208;BMP180;11773;52.570;13.052;2023-10-19T04:00:17;99868.00;;;13.10
23208;BMP180;11773;52.570;13.052;2023-10-19T04:02:47;99852.00;;;13.10
23208;BMP180;11773;52.570;13.052;2023-10-19T04:05:19;99848.00;;;13.10
23208;BMP180;11773;52.570;13.052;2023-10-19T04:07:53;99847.00;;;13.10
23208;BMP180;11773;52.570;13.052;2023-10-19T04:10:26;99840.00;;;13.10
23208;BMP180;11773;52.570;13.052;2023-10-19T04:13:01;99839.00;;;13.10
23208;BMP180;11773;52.570;13.052;2023-10-19T04:15:32;99841.00;;;13.10
23208;BMP180;11773;52.570;13.052;2023-10-19T04:18:05;99839.00;;;13.10
23208;BMP180;11773;52.570;13.052;2023-10-19T04:20:41;99842.00;;;13.10
23208;BMP180;11773;52.570;13.052;2023-10-19T04:23:12;99843.00;;;13.10
23208;BMP180;11773;52.570;13.052;2023-10-19T04:25:44;99838.00;;;13.10
23208;BMP180;11773;52.570;13.052;2023-10-19T04:28:17;99833.00;;;13.00
23208;BMP180;11773;52.570;13.052;2023-10-19T04:30:48;99832.00;;;13.00
23208;BMP180;11773;52.570;13.052;2023-10-19T04:33:17;99834.00;;;13.00
23208;BMP180;11773;52.570;13.052;2023-10-19T04:35:47;99826.00;;;13.00
23208;BMP180;11773;52.570;13.052;2023-10-19T04:38:19;99823.00;;;13.00
23208;BMP180;11773;52.570;13.052;2023-10-19T04:40:48;99826.00;;;13.00
23208;BMP180;11773;52.570;13.052;2023-10-19T04:43:18;99818.00;;;13.00
23208;BMP180;11773;52.570;13.052;2023-10-19T04:45:49;99826.00;;;13.00
23208;BMP180;11773;52.570;13.052;2023-10-19T04:48:19;99821.00;;;13.00
23208;BMP180;11773;52.570;13.052;2023-10-19T04:50:49;99811.00;;;13.00
23208;BMP180;11773;52.570;13.052;2023-10-19T04:53:18;99804.00;;;13.00
23208;BMP180;11773;52.570;13.052;2023-10-19T04:55:48;99797.00;;;13.10
23208;BMP180;11773;52.570;13.052;2023-10-19T04:58:18;99806.00;;;13.10
23208;BMP180;11773;52.570;13.052;2023-10-19T05:00:48;99789.00;;;13.10
23208;BMP180;11773;52.570;13.052;2023-10-19T05:03:17;99788.00;;;13.10
23208;BMP180;11773;52.570;13.052;2023-10-19T05:05:47;99787.00;;;13.10
23208;BMP180;11773;52.570;13.052;2023-10-19T05:08:17;99788.00;;;13.10
23208;BMP180;11773;52.570;13.052;2023-10-19T05:10:47;99799.00;;;13.10
23208;BMP180;11773;52.570;13.052;2023-10-19T05:13:18;99801.00;;;13.10
23208;BMP180;11773;52.570;13.052;2023-10-19T05:15:48;99804.00;;;13.10
23208;BMP180;11773;52.570;13.052;2023-10-19T05:18:17;99803.00;;;13.10
23208;BMP180;11773;52.570;13.052;2023-10-19T05:20:48;99790.00;;;13.10
23208;BMP180;11773;52.570;13.052;2023-10-19T05:23:20;99794.00;;;13.10
23208;BMP180;11773;52.570;13.052;2023-10-19T05:25:58;99821.00;;;13.10
23208;BMP180;11773;52.570;13.052;2023-10-19T05:28:21;99790.00;;;13.10
23208;BMP180;11773;52.570;13.052;2023-10-19T05:30:51;99803.00;;;13.10
23208;BMP180;11773;52.570;13.052;2023-10-19T05:33:21;99796.00;;;13.10
23208;BMP180;11773;52.570;13.052;2023-10-19T05:35:52;99803.00;;;13.10
23208;BMP180;11773;52.570;13.052;2023-10-19T05:38:22;99804.00;;;13.10
23208;BMP180;11773;52.570;13.052;2023-10-19T05:40:51;99803.00;;;13.00
23208;BMP180;11773;52.570;13.052;2023-10-19T05:43:21;99797.00;;;13.00
23208;BMP180;11773;52.570;13.052;2023-10-19T05:45:51;99798.00;;;13.00
23208;BMP180;11773;52.570;13.052;2023-10-19T05:48:21;99789.00;;;13.00
23208;BMP180;11773;52.570;13.052;2023-10-19T05:50:52;99786.00;;;13.00
23208;BMP180;11773;52.570;13.052;2023-10-19T05:53:22;99777.00;;;13.00
23208;BMP180;11773;52.570;13.052;2023-10-19T05:55:52;99781.00;;;13.00
23208;BMP180;11773;52.570;13.052;2023-10-19T05:58:22;99789.00;;;13.00
23208;BMP180;11773;52.570;13.052;2023-10-19T06:00:51;99776.00;;;12.90
23208;BMP180;11773;52.570;13.052;2023-10-19T06:03:21;99770.00;;;12.90
23208;BMP180;11773;52.570;13.052;2023-10-19T06:05:50;99773.00;;;12.90
23208;BMP180;11773;52.570;13.052;2023-10-19T06:08:22;99778.00;;;12.90
23208;BMP180;11773;52.570;13.052;2023-10-19T06:10:53;99765.00;;;12.80
23208;BMP180;11773;52.570;13.052;2023-10-19T06:13:23;99764.00;;;12.80
23208;BMP180;11773;52.570;13.052;2023-10-19T06:15:52;99772.00;;;12.80
23208;BMP180;11773;52.570;13.052;2023-10-19T06:18:22;99773.00;;;12.70
23208;BMP180;11773;52.570;13.052;2023-10-19T06:20:51;99773.00;;;12.70
23208;BMP180;11773;52.570;13.052;2023-10-19T06:23:23;99761.00;;;12.70
23208;BMP180;11773;52.570;13.052;2023-10-19T06:25:53;99750.00;;;12.60
23208;BMP180;11773;52.570;13.052;2023-10-19T06:28:23;99760.00;;;12.60
23208;BMP180;11773;52.570;13.052;2023-10-19T06:30:52;99753.00;;;12.60
23208;BMP180;11773;52.570;13.052;2023-10-19T06:33:22;99741.00;;;12.60
23208;BMP180;11773;52.570;13.052;2023-10-19T06:35:51;99737.00;;;12.60
23208;BMP180;11773;52.570;13.052;2023-10-19T06:38:21;99750.00;;;12.60
23208;BMP180;11773;52.570;13.052;2023-10-19T06:40:50;99735.00;;;12.60
23208;BMP180;11773;52.570;13.052;2023-10-19T06:43:20;99734.00;;;12.50
23208;BMP180;11773;52.570;13.052;2023-10-19T06:45:51;99738.00;;;12.50
23208;BMP180;11773;52.570;13.052;2023-10-19T06:48:21;99724.00;;;12.50
23208;BMP180;11773;52.570;13.052;2023-10-19T06:50:51;99713.00;;;12.50
23208;BMP180;11773;52.570;13.052;2023-10-19T06:53:23;99727.00;;;12.50
23208;BMP180;11773;52.570;13.052;2023-10-19T06:55:53;99708.00;;;12.40
23208;BMP180;11773;52.570;13.052;2023-10-19T06:58:23;99707.00;;;12.40
23208;BMP180;11773;52.570;13.052;2023-10-19T07:00:56;99697.00;;;12.40
23208;BMP180;11773;52.570;13.052;2023-10-19T07:03:27;99704.00;;;12.40
23208;BMP180;11773;52.570;13.052;2023-10-19T07:05:57;99704.00;;;12.30
23208;BMP180;11773;52.570;13.052;2023-10-19T07:08:27;99707.00;;;12.30
23208;BMP180;11773;52.570;13.052;2023-10-19T07:10:56;99702.00;;;12.30
23208;BMP180;11773;52.570;13.052;2023-10-19T07:13:26;99730.00;;;12.30
23208;BMP180;11773;52.570;13.052;2023-10-19T07:15:57;99734.00;;;12.30
23208;BMP180;11773;52.570;13.052;2023-10-19T07:18:27;99722.00;;;12.20
23208;BMP180;11773;52.570;13.052;2023-10-19T07:20:57;99715.00;;;12.20
23208;BMP180;11773;52.570;13.052;2023-10-19T07:23:28;99732.00;;;12.30
23208;BMP180;11773;52.570;13.052;2023-10-19T07:25:58;99731.00;;;12.30
23208;BMP180;11773;52.570;13.052;2023-10-19T07:28:30;99732.00;;;12.30
23208;BMP180;11773;52.570;13.052;2023-10-19T07:31:02;99722.00;;;12.30
23208;BMP180;11773;52.570;13.052;2023-10-19T07:33:32;99728.00;;;12.30
23208;BMP180;11773;52.570;13.052;2023-10-19T07:36:02;99737.00;;;12.30
23208;BMP180;11773;52.570;13.052;2023-10-19T07:38:33;99751.00;;;12.30
23208;BMP180;11773;52.570;13.052;2023-10-19T07:41:03;99740.00;;;12.30
23208;BMP180;11773;52.570;13.052;2023-10-19T07:43:34;99750.00;;;12.40
23208;BMP180;11773;52.570;13.052;2023-10-19T07:46:03;99751.00;;;12.40
23208;BMP180;11773;52.570;13.052;2023-10-19T07:48:33;99739.00;;;12.40
23208;BMP180;11773;52.570;13.052;2023-10-19T07:51:03;99722.00;;;12.40
23208;BMP180;11773;52.570;13.052;2023-10-19T07:53:32;99727.00;;;12.40
23208;BMP180;11773;52.570;13.052;2023-10-19T07:56:02;99731.00;;;12.40
23208;BMP180;11773;52.570;13.052;2023-10-19T07:58:32;99725.00;;;12.50
23208;BMP180;11773;52.570;13.052;2023-10-19T08:01:02;99728.00;;;12.50
23208;BMP180;11773;52.570;13.052;2023-10-19T08:03:33;99723.00;;;12.50
23208;BMP180;11773;52.570;13.052;2023-10-19T08:06:03;99721.00;;;12.50
23208;BMP180;11773;52.570;13.052;2023-10-19T08:08:34;99726.00;;;12.60
23208;BMP180;11773;52.570;13.052;2023-10-19T08:11:05;99717.00;;;12.60
23208;BMP180;11773;52.570;13.052;2023-10-19T08:13:34;99707.00;;;12.70
23208;BMP180;11773;52.570;13.052;2023-10-19T08:16:04;99716.00;;;12.70
23208;BMP180;11773;52.570;13.052;2023-10-19T08:18:36;99705.00;;;12.70
23208;BMP180;11773;52.570;13.052;2023-10-19T08:21:06;99693.00;;;12.70
23208;BMP180;11773;52.570;13.052;2023-10-19T08:23:36;99693.00;;;12.80
23208;BMP180;11773;52.570;13.052;2023-10-19T08:26:05;99708.00;;;12.80
23208;BMP180;11773;52.570;13.052;2023-10-19T08:28:35;99697.00;;;12.80
23208;BMP180;11773;52.570;13.052;2023-10-19T08:31:08;99693.00;;;12.80
23208;BMP180;11773;52.570;13.052;2023-10-19T08:33:38;99674.00;;;12.80
23208;BMP180;11773;52.570;13.052;2023-10-19T08:36:20;99654.00;;;12.80
23208;BMP180;11773;52.570;13.052;2023-10-19T08:38:49;99670.00;;;12.80
23208;BMP180;11773;52.570;13.052;2023-10-19T08:41:20;99673.00;;;12.90
23208;BMP180;11773;52.570;13.052;2023-10-19T08:43:51;99689.00;;;12.90
23208;BMP180;11773;52.570;13.052;2023-10-19T08:46:22;99691.00;;;12.90
23208;BMP180;11773;52.570;13.052;2023-10-19T08:48:56;99699.00;;;13.00
23208;BMP180;11773;52.570;13.052;2023-10-19T08:51:27;99698.00;;;13.00
23208;BMP180;11773;52.570;13.052;2023-10-19T08:53:57;99699.00;;;13.10
23208;BMP180;11773;52.570;13.052;2023-10-19T08:56:27;99690.00;;;13.10
23208;BMP180;11773;52.570;13.052;2023-10-19T08:58:57;99687.00;;;13.10
23208;BMP180;11773;52.570;13.052;2023-10-19T09:01:28;99689.00;;;13.20
23208;BMP180;11773;52.570;13.052;2023-10-19T09:03:59;99684.00;;;13.20
23208;BMP180;11773;52.570;13.052;2023-10-19T09:06:29;99685.00;;;13.20
23208;BMP180;11773;52.570;13.052;2023-10-19T09:08:59;99682.00;;;13.30
23208;BMP180;11773;52.570;13.052;2023-10-19T09:11:31;99671.00;;;13.30
23208;BMP180;11773;52.570;13.052;2023-10-19T09:14:02;99664.00;;;13.30
23208;BMP180;11773;52.570;13.052;2023-10-19T09:16:33;99659.00;;;13.30
23208;BMP180;11773;52.570;13.052;2023-10-19T09:19:04;99643.00;;;13.30
23208;BMP180;11773;52.570;13.052;2023-10-19T09:21:35;99644.00;;;13.30
23208;BMP180;11773;52.570;13.052;2023-10-19T09:24:05;99660.00;;;13.40
23208;BMP180;11773;52.570;13.052;2023-10-19T09:26:37;99644.00;;;13.40
23208;BMP180;11773;52.570;13.052;2023-10-19T09:29:08;99648.00;;;13.40
23208;BMP180;11773;52.570;13.052;2023-10-19T09:31:39;99651.00;;;13.40
23208;BMP180;11773;52.570;13.052;2023-10-19T09:34:10;99656.00;;;13.40
23208;BMP180;11773;52.570;13.052;2023-10-19T09:36:40;99665.00;;;13.40
23208;BMP180;11773;52.570;13.052;2023-10-19T09:39:11;99654.00;;;13.40
23208;BMP180;11773;52.570;13.052;2023-10-19T09:41:41;99669.00;;;13.40
23208;BMP180;11773;52.570;13.052;2023-10-19T09:44:12;99666.00;;;13.40
23208;BMP180;11773;52.570;13.052;2023-10-19T09:46:45;99672.00;;;13.40
23208;BMP180;11773;52.570;13.052;2023-10-19T09:49:16;99655.00;;;13.40
23208;BMP180;11773;52.570;13.052;2023-10-19T09:51:47;99652.00;;;13.40
23208;BMP180;11773;52.570;13.052;2023-10-19T09:54:32;99662.00;;;13.40
23208;BMP180;11773;52.570;13.052;2023-10-19T09:57:03;99647.00;;;13.40
23208;BMP180;11773;52.570;13.052;2023-10-19T09:59:40;99650.00;;;13.40
23208;BMP180;11773;52.570;13.052;2023-10-19T10:02:12;99649.00;;;13.40
23208;BMP180;11773;52.570;13.052;2023-10-19T10:04:44;99655.00;;;13.30
23208;BMP180;11773;52.570;13.052;2023-10-19T10:07:19;99659.00;;;13.30
23208;BMP180;11773;52.570;13.052;2023-10-19T10:09:50;99641.00;;;13.30
23208;BMP180;11773;52.570;13.052;2023-10-19T10:12:23;99634.00;;;13.30
23208;BMP180;11773;52.570;13.052;2023-10-19T10:15:04;99646.00;;;13.30
23208;BMP180;11773;52.570;13.052;2023-10-19T10:17:39;99635.00;;;13.30
23208;BMP180;11773;52.570;13.052;2023-10-19T10:23:16;99624.00;;;13.20
23208;BMP180;11773;52.570;13.052;2023-10-19T10:25:49;99618.00;;;13.20
23208;BMP180;11773;52.570;13.052;2023-10-19T10:28:20;99621.00;;;13.20
23208;BMP180;11773;52.570;13.052;2023-10-19T10:31:20;99612.00;;;13.30
23208;BMP180;11773;52.570;13.052;2023-10-19T10:33:52;99608.00;;;13.20
23208;BMP180;11773;52.570;13.052;2023-10-19T10:36:24;99598.00;;;13.20
23208;BMP180;11773;52.570;13.052;2023-10-19T10:39:01;99596.00;;;13.20
23208;BMP180;11773;52.570;13.052;2023-10-19T10:41:29;99612.00;;;13.20
23208;BMP180;11773;52.570;13.052;2023-10-19T10:44:00;99592.00;;;13.30
23208;BMP180;11773;52.570;13.052;2023-10-19T10:46:30;99601.00;;;13.30
23208;BMP180;11773;52.570;13.052;2023-10-19T10:49:01;99605.00;;;13.30
23208;BMP180;11773;52.570;13.052;2023-10-19T10:51:32;99598.00;;;13.30
23208;BMP180;11773;52.570;13.052;2023-10-19T10:54:01;99609.00;;;13.30
23208;BMP180;11773;52.570;13.052;2023-10-19T10:56:39;99588.00;;;13.30
23208;BMP180;11773;52.570;13.052;2023-10-19T10:59:13;99587.00;;;13.30
23208;BMP180;11773;52.570;13.052;2023-10-19T11:01:43;99598.00;;;13.30
23208;BMP180;11773;52.570;13.052;2023-10-19T11:04:13;99586.00;;;13.30
23208;BMP180;11773;52.570;13.052;2023-10-19T11:06:53;99585.00;;;13.30
23208;BMP180;11773;52.570;13.052;2023-10-19T11:09:26;99599.00;;;13.30
23208;BMP180;11773;52.570;13.052;2023-10-19T11:11:56;99590.00;;;13.30
23208;BMP180;11773;52.570;13.052;2023-10-19T11:14:28;99597.00;;;13.30
23208;BMP180;11773;52.570;13.052;2023-10-19T11:17:12;99590.00;;;13.30
23208;BMP180;11773;52.570;13.052;2023-10-19T11:19:44;99585.00;;;13.30
23208;BMP180;11773;52.570;13.052;2023-10-19T11:22:14;99576.00;;;13.30
23208;BMP180;11773;52.570;13.052;2023-10-19T11:24:43;99589.00;;;13.40
23208;BMP180;11773;52.570;13.052;2023-10-19T11:27:13;99578.00;;;13.40
23208;BMP180;11773;52.570;13.052;2023-10-19T11:30:00;99571.00;;;13.40
23208;BMP180;11773;52.570;13.052;2023-10-19T11:32:38;99578.00;;;13.40
23208;BMP180;11773;52.570;13.052;2023-10-19T11:35:08;99575.00;;;13.40
23208;BMP180;11773;52.570;13.052;2023-10-19T11:37:49;99574.00;;;13.40
23208;BMP180;11773;52.570;13.052;2023-10-19T11:40:22;99569.00;;;13.40
23208;BMP180;11773;52.570;13.052;2023-10-19T11:42:54;99569.00;;;13.40
23208;BMP180;11773;52.570;13.052;2023-10-19T11:45:25;99568.00;;;13.50
23208;BMP180;11773;52.570;13.052;2023-10-19T11:47:55;99564.00;;;13.50
23208;BMP180;11773;52.570;13.052;2023-10-19T11:50:25;99564.00;;;13.50
23208;BMP180;11773;52.570;13.052;2023-10-19T11:52:56;99572.00;;;13.50
23208;BMP180;11773;52.570;13.052;2023-10-19T11:55:26;99547.00;;;13.50
23208;BMP180;11773;52.570;13.052;2023-10-19T11:57:55;99548.00;;;13.50
23208;BMP180;11773;52.570;13.052;2023-10-19T12:00:25;99553.00;;;13.50
23208;BMP180;11773;52.570;13.052;2023-10-19T12:02:56;99566.00;;;13.50
23208;BMP180;11773;52.570;13.052;2023-10-19T12:05:26;99563.00;;;13.50
23208;BMP180;11773;52.570;13.052;2023-10-19T12:07:56;99553.00;;;13.50
23208;BMP180;11773;52.570;13.052;2023-10-19T12:10:26;99553.00;;;13.50
23208;BMP180;11773;52.570;13.052;2023-10-19T12:12:57;99560.00;;;13.50
23208;BMP180;11773;52.570;13.052;2023-10-19T12:15:29;99545.00;;;13.50
23208;BMP180;11773;52.570;13.052;2023-10-19T12:18:00;99549.00;;;13.50
23208;BMP180;11773;52.570;13.052;2023-10-19T12:20:31;99548.00;;;13.50
23208;BMP180;11773;52.570;13.052;2023-10-19T12:23:03;99536.00;;;13.50
23208;BMP180;11773;52.570;13.052;2023-10-19T12:25:34;99543.00;;;13.50
23208;BMP180;11773;52.570;13.052;2023-10-19T12:28:07;99535.00;;;13.50
23208;BMP180;11773;52.570;13.052;2023-10-19T12:30:36;99548.00;;;13.50
23208;BMP180;11773;52.570;13.052;2023-10-19T12:33:08;99539.00;;;13.50
23208;BMP180;11773;52.570;13.052;2023-10-19T12:35:42;99533.00;;;13.50
23208;BMP180;11773;52.570;13.052;2023-10-19T12:38:18;99530.00;;;13.50
23208;BMP180;11773;52.570;13.052;2023-10-19T12:40:50;99525.00;;;13.50
23208;BMP180;11773;52.570;13.052;2023-10-19T12:43:20;99539.00;;;13.50
23208;BMP180;11773;52.570;13.052;2023-10-19T12:45:51;99525.00;;;13.50
23208;BMP180;11773;52.570;13.052;2023-10-19T12:48:25;99534.00;;;13.50
23208;BMP180;11773;52.570;13.052;2023-10-19T12:50:56;99533.00;;;13.50
23208;BMP180;11773;52.570;13.052;2023-10-19T12:53:26;99535.00;;;13.50
23208;BMP180;11773;52.570;13.052;2023-10-19T12:55:55;99535.00;;;13.50
23208;BMP180;11773;52.570;13.052;2023-10-19T12:58:25;99540.00;;;13.50
23208;BMP180;11773;52.570;13.052;2023-10-19T13:00:56;99527.00;;;13.50
23208;BMP180;11773;52.570;13.052;2023-10-19T13:03:26;99541.00;;;13.50
23208;BMP180;11773;52.570;13.052;2023-10-19T13:05:57;99528.00;;;13.50
23208;BMP180;11773;52.570;13.052;2023-10-19T13:08:28;99522.00;;;13.50
23208;BMP180;11773;52.570;13.052;2023-10-19T13:10:57;99522.00;;;13.50
23208;BMP180;11773;52.570;13.052;2023-10-19T13:13:28;99518.00;;;13.50
23208;BMP180;11773;52.570;13.052;2023-10-19T13:15:58;99523.00;;;13.50
23208;BMP180;11773;52.570;13.052;2023-10-19T13:18:28;99516.00;;;13.50
23208;BMP180;11773;52.570;13.052;2023-10-19T13:20:58;99517.00;;;13.50
23208;BMP180;11773;52.570;13.052;2023-10-19T13:23:29;99519.00;;;13.50
23208;BMP180;11773;52.570;13.052;2023-10-19T13:26:01;99516.00;;;13.40
23208;BMP180;11773;52.570;13.052;2023-10-19T13:28:39;99510.00;;;13.40
23208;BMP180;11773;52.570;13.052;2023-10-19T13:31:09;99512.00;;;13.40
23208;BMP180;11773;52.570;13.052;2023-10-19T13:33:40;99504.00;;;13.40
23208;BMP180;11773;52.570;13.052;2023-10-19T13:36:11;99522.00;;;13.40
23208;BMP180;11773;52.570;13.052;2023-10-19T13:38:42;99511.00;;;13.40
23208;BMP180;11773;52.570;13.052;2023-10-19T13:41:12;99519.00;;;13.40
23208;BMP180;11773;52.570;13.052;2023-10-19T13:43:43;99502.00;;;13.40
23208;BMP180;11773;52.570;13.052;2023-10-19T13:46:13;99499.00;;;13.40
23208;BMP180;11773;52.570;13.052;2023-10-19T13:48:43;99518.00;;;13.40
23208;BMP180;11773;52.570;13.052;2023-10-19T13:51:18;99512.00;;;13.40
23208;BMP180;11773;52.570;13.052;2023-10-19T13:53:48;99506.00;;;13.40
23208;BMP180;11773;52.570;13.052;2023-10-19T13:56:18;99517.00;;;13.40
23208;BMP180;11773;52.570;13.052;2023-10-19T13:58:48;99516.00;;;13.40
23208;BMP180;11773;52.570;13.052;2023-10-19T14:01:18;99513.00;;;13.40
23208;BMP180;11773;52.570;13.052;2023-10-19T14:03:54;99500.00;;;13.50
23208;BMP180;11773;52.570;13.052;2023-10-19T14:06:26;99513.00;;;13.50
23208;BMP180;11773;52.570;13.052;2023-10-19T14:08:56;99513.00;;;13.50
23208;BMP180;11773;52.570;13.052;2023-10-19T14:11:25;99497.00;;;13.50
23208;BMP180;11773;52.570;13.052;2023-10-19T14:13:55;99494.00;;;13.50
23208;BMP180;11773;52.570;13.052;2023-10-19T14:16:25;99500.00;;;13.50
23208;BMP180;11773;52.570;13.052;2023-10-19T14:18:55;99497.00;;;13.50
23208;BMP180;11773;52.570;13.052;2023-10-19T14:21:24;99489.00;;;13.50
23208;BMP180;11773;52.570;13.052;2023-10-19T14:23:56;99489.00;;;13.50
23208;BMP180;11773;52.570;13.052;2023-10-19T14:26:25;99484.00;;;13.50
23208;BMP180;11773;52.570;13.052;2023-10-19T14:28:55;99480.00;;;13.40